Time;durP1;ratioP1;P1;durP2;ratioP2;P2;SDS_P1;SDS_P2;PMS_P1;PMS_P2;Temp;Humidity;BMP_temperature;BMP_pressure;BME280_temperature;BME280_humidity;BME280_pressure;Samples;Min_cycle;Max_cycle;Signal;HPM_P1;HPM_P2
2022/07/11 00:02:17;;;;;;;2.20;0.82;;;;;;;17.20;56.40;97167.84;5041733;28;20686;-59
2022/07/11 00:04:45;;;;;;;1.30;1.08;;;;;;;17.12;55.22;97169.69;5041698;28;20563;-58
2022/07/11 00:07:12;;;;;;;2.78;1.60;;;;;;;17.18;56.61;97164.50;5044977;28;20231;-60
2022/07/11 00:09:39;;;;;;;1.58;1.15;;;;;;;17.19;57.42;97168.00;5046027;28;20227;-58
2022/07/11 00:12:07;;;;;;;3.88;1.08;;;;;;;17.18;57.25;97169.84;5045752;28;20221;-57
2022/07/11 00:14:35;;;;;;;1.83;1.17;;;;;;;17.14;58.55;97165.03;5045285;28;20210;-57
2022/07/11 00:17:02;;;;;;;2.50;1.17;;;;;;;17.12;57.36;97167.84;5045790;28;20291;-57
2022/07/11 00:19:29;;;;;;;1.52;1.00;;;;;;;17.05;58.32;97163.34;5045446;28;20705;-59
2022/07/11 00:21:55;;;;;;;1.75;1.20;;;;;;;16.99;57.99;97166.72;5045939;28;20932;-57
2022/07/11 00:24:24;;;;;;;2.30;0.98;;;;;;;17.11;58.15;97165.38;5045526;28;20575;-58
2022/07/11 00:26:52;;;;;;;2.08;1.27;;;;;;;17.01;58.71;97164.69;5045609;28;20289;-57
2022/07/11 00:29:20;;;;;;;2.05;1.20;;;;;;;16.97;59.18;97163.41;5046215;28;20244;-57
2022/07/11 00:31:48;;;;;;;1.88;1.27;;;;;;;16.88;60.81;97160.72;5046014;28;20231;-58
2022/07/11 00:34:17;;;;;;;2.55;1.25;;;;;;;16.85;57.76;97165.56;5045081;28;20812;-58
2022/07/11 00:36:46;;;;;;;1.15;1.05;;;;;;;16.82;58.25;97161.41;5045444;28;20204;-59
2022/07/11 00:39:13;;;;;;;2.28;1.27;;;;;;;16.80;58.89;97163.41;5045377;28;20200;-59
2022/07/11 00:41:39;;;;;;;3.47;1.30;;;;;;;16.81;58.78;97166.91;5045705;28;20199;-58
2022/07/11 00:44:06;;;;;;;1.90;1.70;;;;;;;16.83;58.21;97163.06;5046688;28;20207;-59
2022/07/11 00:46:33;;;;;;;1.73;1.33;;;;;;;16.81;58.95;97158.91;5044770;28;20231;-58
2022/07/11 00:49:01;;;;;;;1.85;1.20;;;;;;;16.80;58.14;97163.41;5046067;28;20631;-58
2022/07/11 00:51:27;;;;;;;2.30;1.20;;;;;;;16.77;58.86;97157.56;5046185;28;20224;-59
2022/07/11 00:53:55;;;;;;;1.88;1.48;;;;;;;16.69;58.81;97161.06;5045558;28;20235;-57
2022/07/11 00:56:23;;;;;;;2.08;1.20;;;;;;;16.63;60.18;97159.09;5044998;28;20230;-57
2022/07/11 00:58:51;;;;;;;1.27;0.90;;;;;;;16.52;60.40;97155.88;5045602;28;20593;-56
2022/07/11 01:01:18;;;;;;;1.83;1.30;;;;;;;16.52;60.55;97155.88;5045108;28;20287;-56
2022/07/11 01:03:45;;;;;;;2.53;1.37;;;;;;;16.48;60.61;97155.38;5044608;28;20607;-57
2022/07/11 01:06:14;;;;;;;1.38;1.10;;;;;;;16.52;60.03;97150.53;5027342;28;20204;-58
2022/07/11 01:08:42;;;;;;;2.25;1.25;;;;;;;16.52;59.54;97148.72;5044816;28;20635;-58
2022/07/11 01:11:12;;;;;;;1.37;1.03;;;;;;;16.41;59.73;97147.22;5044954;28;20262;-60
2022/07/11 01:13:39;;;;;;;3.72;1.20;;;;;;;16.45;58.95;97153.06;5027748;28;20196;-57
2022/07/11 01:16:10;;;;;;;3.60;1.33;;;;;;;16.43;59.15;97139.88;5044966;28;20228;-56
2022/07/11 01:18:36;;;;;;;2.60;1.23;;;;;;;16.41;59.50;97147.22;5043516;28;20207;-58
2022/07/11 01:21:08;;;;;;;2.23;1.30;;;;;;;16.31;60.93;97145.69;5049659;28;20204;-56
2022/07/11 01:23:36;;;;;;;2.90;1.50;;;;;;;16.24;60.92;97145.53;5053202;28;20238;-57
2022/07/11 01:26:03;;;;;;;2.57;1.30;;;;;;;16.18;62.14;97138.22;5050275;28;20254;-57
2022/07/11 01:28:30;;;;;;;2.65;1.42;;;;;;;16.14;63.60;97133.34;5045526;28;20214;-56
2022/07/11 01:30:59;;;;;;;1.47;1.10;;;;;;;16.10;61.81;97130.19;5044538;28;20208;-56
2022/07/11 01:33:25;;;;;;;2.93;1.30;;;;;;;15.96;63.25;97130.84;5044535;28;20200;-58
2022/07/11 01:35:52;;;;;;;1.93;1.57;;;;;;;15.94;63.01;97133.66;5044142;28;20235;-58
2022/07/11 01:38:19;;;;;;;2.87;2.07;;;;;;;15.90;64.49;97120.84;5045635;28;20235;-58
2022/07/11 01:40:48;;;;;;;1.42;1.00;;;;;;;15.86;63.99;97128.31;5044439;28;20240;-58
2022/07/11 01:43:15;;;;;;;2.00;1.37;;;;;;;15.76;65.24;97132.97;5045026;28;20242;-59
2022/07/11 01:45:42;;;;;;;1.80;1.47;;;;;;;15.67;65.79;97133.09;5043971;28;20227;-58
2022/07/11 01:48:10;;;;;;;3.67;1.20;;;;;;;15.70;67.07;97141.59;5044152;28;20255;-58
2022/07/11 01:50:37;;;;;;;4.10;1.33;;;;;;;15.71;67.39;97132.63;5044570;28;20211;-59
2022/07/11 01:53:03;;;;;;;1.43;1.33;;;;;;;15.63;65.73;97140.59;5043076;28;20231;-59
2022/07/11 01:55:31;;;;;;;1.57;1.47;;;;;;;15.55;65.26;97132.59;5043468;28;20652;-57
2022/07/11 01:57:59;;;;;;;1.67;1.20;;;;;;;15.56;65.83;97134.22;5044340;28;20288;-56
2022/07/11 02:00:26;;;;;;;2.77;1.40;;;;;;;15.52;66.44;97134.75;5044277;28;20288;-57
2022/07/11 02:02:53;;;;;;;1.77;1.47;;;;;;;15.58;65.53;97137.59;5044332;28;20204;-58
2022/07/11 02:05:20;;;;;;;2.10;1.23;;;;;;;15.59;65.76;97135.75;5042566;28;20207;-57
2022/07/11 02:10:32;;;;;;;1.67;1.10;;;;;;;15.50;65.96;97134.88;5043563;28;20328;-55
2022/07/11 02:13:03;;;;;;;2.63;1.67;;;;;;;15.45;65.37;97127.34;5043234;28;20609;-58
2022/07/11 02:15:31;;;;;;;2.57;1.30;;;;;;;15.47;65.60;97126.34;5044104;28;20219;-52
2022/07/11 02:17:58;;;;;;;1.43;1.30;;;;;;;15.44;66.39;97135.50;5043556;28;20270;-52
2022/07/11 02:20:26;;;;;;;2.30;1.40;;;;;;;15.48;65.58;97128.84;5043527;28;20662;-53
2022/07/11 02:22:56;;;;;;;2.42;1.38;;;;;;;15.38;66.66;97123.66;5041828;28;20203;-52
2022/07/11 02:25:23;;;;;;;1.83;1.20;;;;;;;15.32;66.52;97120.78;5044581;28;20269;-53
2022/07/11 02:27:51;;;;;;;2.77;1.57;;;;;;;15.30;67.92;97120.13;5043507;28;20571;-53
2022/07/11 02:30:19;;;;;;;2.57;1.63;;;;;;;15.33;66.30;97112.66;5042228;28;20265;-53
2022/07/11 02:32:45;;;;;;;1.87;1.60;;;;;;;15.23;67.41;97113.78;5043172;28;20645;-53
2022/07/11 02:35:12;;;;;;;1.27;1.07;;;;;;;15.16;68.75;97115.41;5043578;28;20546;-53
2022/07/11 02:37:39;;;;;;;2.10;1.40;;;;;;;15.18;67.80;97108.09;5043094;28;20203;-53
2022/07/11 02:40:07;;;;;;;2.67;1.63;;;;;;;15.04;68.89;97111.34;5043722;28;20219;-53
2022/07/11 02:42:34;;;;;;;3.37;1.57;;;;;;;15.00;69.73;97110.81;5042622;28;20205;-53
2022/07/11 02:45:00;;;;;;;2.03;1.40;;;;;;;15.02;70.36;97102.69;5042687;28;20234;-53
2022/07/11 02:47:28;;;;;;;2.83;1.33;;;;;;;14.97;70.58;97112.97;5043862;28;20220;-53
2022/07/11 02:49:55;;;;;;;3.17;1.27;;;;;;;14.89;71.31;97109.28;5042641;28;20780;-53
2022/07/11 02:52:24;;;;;;;2.03;1.40;;;;;;;14.88;70.73;97102.28;5043142;28;20215;-53
2022/07/11 02:54:51;;;;;;;2.67;1.33;;;;;;;14.83;71.77;97104.59;5043765;28;20668;-52
2022/07/11 02:57:17;;;;;;;2.13;1.57;;;;;;;14.84;69.94;97106.25;5042594;28;20239;-53
2022/07/11 02:59:44;;;;;;;2.03;1.40;;;;;;;14.67;71.66;97109.81;5042811;28;20227;-53
2022/07/11 03:02:11;;;;;;;2.07;1.40;;;;;;;14.59;72.22;97112.44;5043066;28;20237;-53
2022/07/11 03:04:40;;;;;;;1.40;1.30;;;;;;;14.57;72.50;97106.41;5042572;28;20203;-53
2022/07/11 03:07:07;;;;;;;2.47;1.40;;;;;;;14.61;71.88;97105.13;5042740;28;20533;-53
2022/07/11 03:09:35;;;;;;;3.30;1.47;;;;;;;14.61;72.36;97110.44;5042273;28;20306;-52
2022/07/11 03:12:02;;;;;;;2.47;1.73;;;;;;;14.51;72.80;97104.38;5043066;28;20239;-52
2022/07/11 03:14:29;;;;;;;3.10;1.77;;;;;;;14.49;73.96;97106.34;5042949;28;20244;-53
2022/07/11 03:16:55;;;;;;;2.20;1.40;;;;;;;14.49;73.94;97100.22;5042851;28;20294;-52
2022/07/11 03:19:23;;;;;;;2.23;1.43;;;;;;;14.41;73.44;97104.50;5042661;28;20211;-52
2022/07/11 03:21:52;;;;;;;1.50;1.30;;;;;;;14.54;72.34;97100.56;5043045;28;20253;-53
2022/07/11 03:24:19;;;;;;;3.30;1.37;;;;;;;14.49;72.13;97110.88;5043077;28;20285;-53
2022/07/11 03:26:45;;;;;;;2.10;1.17;;;;;;;14.35;73.79;97109.56;5043036;28;20208;-53
2022/07/11 03:29:13;;;;;;;1.70;1.60;;;;;;;14.31;74.61;97108.22;5042514;28;20671;-53
2022/07/11 03:31:40;;;;;;;2.13;1.67;;;;;;;14.22;74.48;97103.81;5050546;28;20275;-53
2022/07/11 03:34:06;;;;;;;2.80;1.43;;;;;;;14.29;74.74;97108.34;5049529;28;20203;-53
2022/07/11 03:36:33;;;;;;;3.07;1.50;;;;;;;14.28;74.54;97103.16;5045320;28;20613;-53
2022/07/11 03:39:01;;;;;;;1.73;1.60;;;;;;;14.30;75.62;97106.53;5045534;28;20825;-52
2022/07/11 03:41:28;;;;;;;3.63;1.60;;;;;;;14.26;76.44;97102.50;5045043;28;20233;-53
2022/07/11 03:43:56;;;;;;;2.87;1.33;;;;;;;14.20;75.96;97100.47;5044674;28;20644;-52
2022/07/11 03:46:23;;;;;;;2.30;1.70;;;;;;;14.16;76.69;97099.09;5044637;28;20235;-53
2022/07/11 03:48:50;;;;;;;2.10;1.27;;;;;;;14.08;77.02;97099.88;5043217;28;20663;-55
2022/07/11 03:51:17;;;;;;;3.57;1.70;;;;;;;14.05;76.86;97102.00;5042523;28;20294;-53
2022/07/11 03:53:44;;;;;;;1.90;1.60;;;;;;;14.19;76.26;97106.78;5041618;28;20218;-53
2022/07/11 03:56:16;;;;;;;1.73;1.60;;;;;;;14.16;76.54;97104.44;5042127;28;20226;-52
2022/07/11 03:58:43;;;;;;;2.80;1.60;;;;;;;14.07;77.12;97106.16;5042897;28;20200;-53
2022/07/11 04:01:10;;;;;;;2.20;1.73;;;;;;;14.18;75.19;97102.44;5041394;28;20651;-53
2022/07/11 04:03:36;;;;;;;3.10;1.73;;;;;;;14.07;77.30;97106.16;5041813;28;20246;-53
2022/07/11 04:06:03;;;;;;;4.37;1.50;;;;;;;14.03;77.08;97102.13;5042241;28;20237;-52
2022/07/11 04:08:32;;;;;;;3.77;2.00;;;;;;;14.07;78.14;97100.00;5042389;28;20229;-51
2022/07/11 04:10:59;;;;;;;3.87;1.90;;;;;;;14.12;76.88;97097.75;5042299;28;20203;-53
2022/07/11 04:13:27;;;;;;;3.00;1.30;;;;;;;14.15;77.01;97098.25;5042147;28;20592;-52
2022/07/11 04:15:54;;;;;;;2.10;1.67;;;;;;;14.18;78.14;97107.75;5041431;28;20956;-51
2022/07/11 04:18:20;;;;;;;1.70;1.50;;;;;;;14.22;78.26;97109.13;5041548;28;20848;-52
2022/07/11 04:20:47;;;;;;;2.57;1.60;;;;;;;14.20;78.37;97111.09;5041425;28;20231;-51
2022/07/11 04:23:14;;;;;;;2.43;1.67;;;;;;;14.45;78.12;97113.81;5041889;28;20230;-51
2022/07/11 04:25:42;;;;;;;3.17;1.70;;;;;;;14.70;76.20;97109.47;5041715;28;20199;-52
2022/07/11 04:28:09;;;;;;;2.07;1.77;;;;;;;14.95;74.02;97118.44;5042668;28;20247;-52
2022/07/11 04:30:37;;;;;;;2.20;1.70;;;;;;;15.17;73.40;97106.41;5041690;28;20290;-52
2022/07/11 04:33:04;;;;;;;1.93;1.67;;;;;;;15.36;71.04;97104.34;5041986;28;20234;-53
2022/07/11 04:35:31;;;;;;;2.67;1.60;;;;;;;15.71;68.98;97105.94;5041263;28;20636;-52
2022/07/11 04:37:58;;;;;;;2.53;2.07;;;;;;;15.99;66.06;97108.31;5041580;28;20279;-52
2022/07/11 04:40:24;;;;;;;2.40;1.80;;;;;;;16.23;65.56;97109.16;5039787;28;20282;-54
2022/07/11 04:42:51;;;;;;;2.80;1.63;;;;;;;16.32;65.29;97110.00;5042483;28;20543;-52
2022/07/11 04:45:18;;;;;;;4.90;1.80;;;;;;;16.31;66.87;97108.34;5040797;28;20630;-52
2022/07/11 04:47:46;;;;;;;3.00;1.60;;;;;;;16.61;64.42;97120.22;5041802;28;20242;-51
2022/07/11 04:50:13;;;;;;;2.37;1.53;;;;;;;16.78;65.50;97109.34;5041418;28;20214;-52
2022/07/11 04:52:39;;;;;;;1.93;1.47;;;;;;;17.02;62.61;97112.94;5043147;28;20214;-52
2022/07/11 04:55:07;;;;;;;2.10;1.20;;;;;;;17.11;61.13;97119.94;5044649;28;20227;-52
2022/07/11 04:57:33;;;;;;;4.40;1.43;;;;;;;17.17;61.38;97121.91;5045184;28;20238;-52
2022/07/11 05:00:00;;;;;;;4.70;1.70;;;;;;;16.98;63.75;97130.31;5045300;28;20845;-52
2022/07/11 05:02:26;;;;;;;3.07;1.90;;;;;;;16.99;61.62;97129.31;5044841;28;20219;-52
2022/07/11 05:04:55;;;;;;;2.87;1.53;;;;;;;16.95;60.88;97122.63;5044568;28;20299;-51
2022/07/11 05:07:22;;;;;;;2.17;1.63;;;;;;;16.85;63.71;97123.69;5044566;28;20207;-52
2022/07/11 05:09:48;;;;;;;2.45;1.45;;;;;;;16.86;62.88;97122.66;5044322;28;20315;-52
2022/07/11 05:12:15;;;;;;;2.73;1.50;;;;;;;16.89;62.88;97124.16;5045592;28;20227;-51
2022/07/11 05:14:42;;;;;;;3.17;1.65;;;;;;;16.85;61.74;97123.69;5051759;28;20215;-52
2022/07/11 05:17:08;;;;;;;2.53;1.37;;;;;;;16.99;62.58;97126.63;5054887;28;20196;-51
2022/07/11 05:19:35;;;;;;;11.77;2.88;;;;;;;17.23;59.59;97121.22;5049803;28;20203;-53
2022/07/11 05:22:04;;;;;;;20.75;2.88;;;;;;;17.29;60.11;97125.84;5047550;28;20227;-53
2022/07/11 05:24:30;;;;;;;23.42;3.53;;;;;;;17.37;61.08;97117.81;5059742;28;20199;-52
2022/07/11 05:26:58;;;;;;;6.88;2.83;;;;;;;17.57;58.83;97123.63;5058839;28;20218;-52
2022/07/11 05:29:25;;;;;;;7.20;2.33;;;;;;;17.60;59.01;97121.44;5048737;28;20231;-53
2022/07/11 05:31:52;;;;;;;6.87;2.60;;;;;;;17.75;59.18;97111.63;5044859;28;20231;-53
2022/07/11 05:34:19;;;;;;;2.70;1.70;;;;;;;18.12;57.49;97120.78;5044139;28;20214;-53
2022/07/11 05:36:47;;;;;;;2.35;1.30;;;;;;;18.30;58.64;97126.66;5044777;28;20303;-53
2022/07/11 05:39:16;;;;;;;4.10;1.58;;;;;;;18.45;59.20;97124.03;5044160;28;20218;-53
2022/07/11 05:41:43;;;;;;;3.67;1.77;;;;;;;18.59;57.33;97120.59;5043087;28;20641;-56
2022/07/11 05:44:09;;;;;;;5.53;2.03;;;;;;;18.93;55.66;97128.13;5044192;28;20204;-53
2022/07/11 05:46:39;;;;;;;3.45;1.60;;;;;;;19.08;55.49;97126.28;5044851;28;20290;-53
2022/07/11 05:49:06;;;;;;;1.63;1.38;;;;;;;19.37;53.72;97127.13;5045754;28;20223;-53
2022/07/11 05:51:32;;;;;;;3.63;1.10;;;;;;;19.48;54.62;97125.88;5046179;28;20231;-53
2022/07/11 05:53:59;;;;;;;2.33;1.58;;;;;;;19.32;54.04;97134.06;5050495;28;20644;-54
2022/07/11 05:56:29;;;;;;;44.47;6.85;;;;;;;19.32;54.93;97134.91;5043962;28;20298;-54
2022/07/11 05:58:56;;;;;;;7.95;2.70;;;;;;;19.63;54.97;97134.72;5045462;28;20191;-54
2022/07/11 06:01:23;;;;;;;5.45;2.15;;;;;;;19.80;52.59;97136.16;5044731;28;20265;-52
2022/07/11 06:03:50;;;;;;;9.18;2.25;;;;;;;19.83;51.88;97133.13;5045174;28;20191;-54
2022/07/11 06:06:20;;;;;;;3.67;1.60;;;;;;;20.05;53.07;97130.47;5044509;28;20203;-54
2022/07/11 06:08:47;;;;;;;4.47;1.85;;;;;;;20.17;52.77;97129.75;5045132;28;20226;-53
2022/07/11 06:11:15;;;;;;;3.08;1.30;;;;;;;20.43;51.04;97131.06;5043707;28;20508;-53
2022/07/11 06:13:45;;;;;;;2.83;1.10;;;;;;;20.74;51.00;97121.63;5044876;28;20234;-53
2022/07/11 06:16:14;;;;;;;6.20;1.55;;;;;;;20.87;49.46;97138.91;5044656;28;20199;-52
2022/07/11 06:18:41;;;;;;;2.53;1.13;;;;;;;20.59;49.57;97128.09;5045499;28;20203;-53
2022/07/11 06:21:08;;;;;;;2.55;1.13;;;;;;;20.87;48.36;97125.47;5046001;28;20204;-54
2022/07/11 06:23:38;;;;;;;4.60;1.50;;;;;;;21.14;49.41;97133.53;5046315;28;20192;-53
2022/07/11 06:26:05;;;;;;;8.55;1.67;;;;;;;21.24;48.06;97133.19;5048867;28;20207;-53
2022/07/11 06:28:32;;;;;;;1.58;1.13;;;;;;;21.48;47.23;97123.78;5054610;28;20208;-53
2022/07/11 06:30:59;;;;;;;4.75;1.38;;;;;;;21.51;48.55;97124.22;5066258;28;20196;-53
2022/07/11 06:33:26;;;;;;;2.08;1.08;;;;;;;21.76;47.81;97119.97;5069940;28;20195;-54
2022/07/11 06:35:53;;;;;;;5.97;2.47;;;;;;;21.98;47.90;97122.56;5064859;28;20199;-53
2022/07/11 06:38:20;;;;;;;2.25;1.33;;;;;;;22.29;47.17;97117.47;5066972;28;20195;-53
2022/07/11 06:40:49;;;;;;;3.72;1.20;;;;;;;22.33;47.05;97119.53;5060347;28;20210;-53
2022/07/11 06:43:15;;;;;;;4.53;1.50;;;;;;;22.47;44.70;97124.94;5063720;28;20196;-54
2022/07/11 06:45:45;;;;;;;3.33;1.40;;;;;;;22.66;44.18;97118.75;5060564;28;20232;-54
2022/07/11 06:48:13;;;;;;;1.65;0.90;;;;;;;22.65;44.47;97117.91;5065036;28;20221;-54
2022/07/11 06:50:40;;;;;;;6.45;1.20;;;;;;;22.83;43.10;97121.88;5064120;28;20226;-53
2022/07/11 06:53:09;;;;;;;3.45;1.20;;;;;;;22.81;42.05;97117.53;5043592;28;20249;-54
2022/07/11 06:55:39;;;;;;;1.85;1.00;;;;;;;22.67;43.41;97126.66;5043455;28;20195;-53
2022/07/11 06:58:06;;;;;;;5.82;1.15;;;;;;;22.86;43.89;97129.56;5042436;28;20548;-54
2022/07/11 07:00:35;;;;;;;2.38;1.20;;;;;;;23.01;42.01;97122.91;5043591;28;20287;-55
2022/07/11 07:03:02;;;;;;;4.97;1.35;;;;;;;23.09;42.57;97124.56;5042716;28;20230;-55
2022/07/11 07:05:30;;;;;;;1.13;0.80;;;;;;;22.91;41.77;97122.50;5042790;28;20195;-54
2022/07/11 07:07:59;;;;;;;2.17;1.25;;;;;;;23.00;42.96;97121.25;5043013;28;20208;-55
2022/07/11 07:10:25;;;;;;;1.60;0.80;;;;;;;23.26;43.97;97120.38;5042526;28;20223;-53
2022/07/11 07:12:52;;;;;;;2.15;1.00;;;;;;;23.26;42.41;97115.81;5042783;28;20203;-53
2022/07/11 07:15:18;;;;;;;1.08;0.98;;;;;;;23.51;43.53;97116.00;5042362;28;20235;-54
2022/07/11 07:17:45;;;;;;;3.00;1.20;;;;;;;23.65;44.72;97117.59;5042150;28;20853;-54
2022/07/11 07:20:13;;;;;;;4.60;1.15;;;;;;;23.74;42.30;97112.78;5043479;28;20231;-54
2022/07/11 07:22:42;;;;;;;2.45;1.27;;;;;;;23.46;43.39;97118.50;5042511;28;20203;-52
2022/07/11 07:25:09;;;;;;;2.05;1.27;;;;;;;23.93;40.70;97116.44;5043296;28;20203;-54
2022/07/11 07:27:36;;;;;;;4.00;1.13;;;;;;;24.08;41.13;97119.69;5042420;28;20195;-54
2022/07/11 07:30:04;;;;;;;2.85;1.05;;;;;;;23.97;41.61;97118.50;5042876;28;20549;-54
2022/07/11 07:32:31;;;;;;;2.72;1.33;;;;;;;24.04;42.32;97108.50;5042474;28;20195;-54
2022/07/11 07:35:00;;;;;;;4.57;1.45;;;;;;;24.06;40.57;97116.38;5043045;28;20219;-53
2022/07/11 07:37:27;;;;;;;31.58;3.75;;;;;;;24.07;40.48;97118.03;5042167;28;20662;-54
2022/07/11 07:39:56;;;;;;;2.10;1.10;;;;;;;24.24;41.24;97117.34;5042818;28;20636;-54
2022/07/11 07:42:23;;;;;;;3.67;1.13;;;;;;;24.04;39.17;97113.06;5042346;28;20210;-54
2022/07/11 07:44:52;;;;;;;7.35;1.40;;;;;;;24.25;39.69;97110.06;5042547;28;20259;-53
2022/07/11 07:47:20;;;;;;;14.35;1.98;;;;;;;24.26;39.01;97109.03;5043298;28;20578;-55
2022/07/11 07:49:47;;;;;;;2.65;1.05;;;;;;;24.50;38.74;97108.22;5041905;28;20717;-55
2022/07/11 07:52:14;;;;;;;3.40;1.17;;;;;;;24.51;40.84;97115.31;5041734;28;20230;-53
2022/07/11 07:54:41;;;;;;;2.75;1.08;;;;;;;24.65;39.98;97116.84;5042143;28;20620;-54
2022/07/11 07:57:09;;;;;;;1.67;1.02;;;;;;;24.81;38.15;97110.06;5042176;28;20249;-55
2022/07/11 07:59:36;;;;;;;2.80;1.02;;;;;;;24.92;38.39;97112.06;5042550;28;20231;-53
2022/07/11 08:02:01;;;;;;;9.07;1.50;;;;;;;24.59;36.72;97116.88;5049154;28;20223;-54
2022/07/11 08:04:29;;;;;;;0.90;0.80;;;;;;;24.62;39.04;97111.88;5046737;28;20859;-54
2022/07/11 08:06:56;;;;;;;2.83;1.13;;;;;;;24.61;37.52;97114.81;5048214;28;20214;-55
2022/07/11 08:09:23;;;;;;;3.65;1.40;;;;;;;25.02;37.42;97106.16;5042575;28;20216;-53
2022/07/11 08:11:50;;;;;;;3.13;1.05;;;;;;;25.15;38.05;97111.47;5041957;28;20211;-54
2022/07/11 08:14:19;;;;;;;5.30;1.30;;;;;;;25.40;39.34;97104.09;5042112;28;20222;-53
2022/07/11 08:16:46;;;;;;;6.80;1.23;;;;;;;25.46;38.01;97102.38;5042548;28;20246;-54
2022/07/11 08:19:12;;;;;;;4.75;1.52;;;;;;;25.64;37.80;97111.38;5041150;28;20200;-53
2022/07/11 08:21:39;;;;;;;1.88;0.90;;;;;;;25.43;35.45;97114.50;5042001;28;20235;-54
2022/07/11 08:24:08;;;;;;;9.00;1.50;;;;;;;25.38;37.09;97106.22;5041625;28;20195;-54
2022/07/11 08:26:37;;;;;;;3.00;1.02;;;;;;;25.77;38.06;97104.13;5042413;28;20230;-54
2022/07/11 08:29:04;;;;;;;1.45;1.02;;;;;;;25.72;36.87;97105.63;5046096;28;20208;-54
2022/07/11 08:31:32;;;;;;;2.38;1.20;;;;;;;25.58;37.17;97112.25;5045611;28;20214;-54
2022/07/11 08:33:59;;;;;;;1.95;0.90;;;;;;;25.49;36.93;97102.75;5045178;28;20662;-55
2022/07/11 08:36:27;;;;;;;3.10;1.02;;;;;;;25.59;36.51;97104.97;5045366;28;20200;-55
2022/07/11 08:38:54;;;;;;;2.47;0.98;;;;;;;25.50;36.81;97099.00;5045227;28;20218;-54
2022/07/11 08:41:23;;;;;;;1.70;0.90;;;;;;;25.53;36.89;97104.00;5045972;28;20228;-54
2022/07/11 08:43:50;;;;;;;2.83;1.17;;;;;;;25.62;39.16;97096.38;5045047;28;20207;-54
2022/07/11 08:46:17;;;;;;;10.45;1.88;;;;;;;25.81;38.40;97094.47;5045377;28;20266;-54
2022/07/11 08:48:46;;;;;;;3.92;1.13;;;;;;;25.90;37.81;97093.94;5044967;28;20220;-53
2022/07/11 08:51:12;;;;;;;6.20;1.92;;;;;;;26.05;35.74;97091.66;5045859;28;20222;-52
2022/07/11 08:53:43;;;;;;;3.90;1.20;;;;;;;25.77;36.90;97088.69;5044811;28;20200;-53
2022/07/11 08:56:14;;;;;;;5.53;1.27;;;;;;;25.76;37.67;97089.75;5045826;28;20195;-55
2022/07/11 08:58:45;;;;;;;4.97;1.38;;;;;;;25.86;36.78;97087.34;5043785;28;20200;-53
2022/07/11 09:01:15;;;;;;;3.38;0.80;;;;;;;25.87;38.35;97088.97;5043640;28;20228;-54
2022/07/11 09:03:42;;;;;;;7.75;1.60;;;;;;;25.98;36.77;97090.09;5046010;28;20200;-53
2022/07/11 09:06:11;;;;;;;3.22;1.23;;;;;;;26.05;38.62;97082.69;5044451;28;20230;-54
2022/07/11 09:08:38;;;;;;;1.67;1.13;;;;;;;26.11;38.05;97079.09;5045286;28;20207;-54
2022/07/11 09:11:06;;;;;;;2.78;1.30;;;;;;;26.09;37.94;97081.19;5044993;28;20214;-54
2022/07/11 09:13:34;;;;;;;2.63;0.85;;;;;;;26.50;38.23;97083.91;5046383;28;20206;-54
2022/07/11 09:16:03;;;;;;;3.30;1.27;;;;;;;26.33;35.50;97082.09;5045288;28;20199;-54
2022/07/11 09:18:31;;;;;;;2.08;1.08;;;;;;;26.19;38.06;97073.34;5047573;28;20196;-55
2022/07/11 09:26:31;;;;;;;5.80;1.65;;;;;;;26.35;37.48;97077.28;5045029;28;20309;-53
2022/07/11 09:29:04;;;;;;;5.32;1.52;;;;;;;26.35;36.17;97070.00;5027249;28;20283;-53
2022/07/11 09:31:32;;;;;;;5.68;1.52;;;;;;;26.16;37.93;97077.31;5044993;28;20242;-55
2022/07/11 09:34:08;;;;;;;2.75;1.20;;;;;;;26.24;37.97;97073.50;5044193;28;20242;-55
2022/07/11 09:36:42;;;;;;;4.22;1.40;;;;;;;26.45;38.15;97081.09;5044243;28;20258;-55
2022/07/11 09:39:12;;;;;;;5.78;1.77;;;;;;;26.45;37.18;97067.53;5043733;28;20271;-54
2022/07/11 09:41:40;;;;;;;3.53;1.70;;;;;;;26.35;36.57;97070.00;5044267;28;20223;-54
2022/07/11 09:44:12;;;;;;;1.83;1.23;;;;;;;26.54;37.24;97074.25;5044590;28;20208;-55
2022/07/11 09:46:38;;;;;;;1.90;1.20;;;;;;;26.61;38.53;97066.00;5044582;28;20235;-54
2022/07/11 09:49:06;;;;;;;4.25;1.10;;;;;;;26.69;38.09;97066.50;5044164;28;20214;-53
2022/07/11 09:51:34;;;;;;;1.63;1.25;;;;;;;27.02;36.74;97062.44;5042369;28;20308;-54
2022/07/11 09:54:01;;;;;;;2.05;1.00;;;;;;;27.18;36.17;97057.09;5044102;28;20227;-53
2022/07/11 09:56:33;;;;;;;2.70;1.65;;;;;;;27.17;35.94;97068.22;5043203;28;20214;-54
2022/07/11 09:59:01;;;;;;;3.30;1.50;;;;;;;27.49;37.18;97064.03;5044377;28;20204;-55
2022/07/11 10:01:28;;;;;;;4.50;1.20;;;;;;;27.42;36.49;97062.50;5043545;28;20199;-54
2022/07/11 10:03:55;;;;;;;3.80;0.98;;;;;;;27.39;36.40;97061.06;5044491;28;20640;-54
2022/07/11 10:06:24;;;;;;;4.10;1.42;;;;;;;27.27;35.14;97063.00;5043396;28;20628;-53
2022/07/11 10:08:52;;;;;;;2.38;1.35;;;;;;;27.41;36.58;97058.97;5044259;28;20199;-56
2022/07/11 10:11:19;;;;;;;2.42;1.13;;;;;;;27.23;34.36;97066.41;5043109;28;20240;-54
2022/07/11 10:13:48;;;;;;;4.50;1.30;;;;;;;27.31;37.84;97053.31;5054557;28;20209;-53
2022/07/11 10:16:22;;;;;;;1.88;0.95;;;;;;;27.53;35.99;97057.06;5049874;28;20195;-53
2022/07/11 10:18:54;;;;;;;3.15;1.20;;;;;;;27.72;35.78;97054.19;5046024;28;20279;-54
2022/07/11 10:21:27;;;;;;;4.38;1.63;;;;;;;27.64;34.83;97056.22;5043802;28;20191;-54
2022/07/11 10:23:58;;;;;;;3.28;1.60;;;;;;;27.74;34.74;97057.50;5043153;28;20210;-53
2022/07/11 10:26:26;;;;;;;2.13;1.52;;;;;;;27.69;34.97;97048.19;5043239;28;20230;-54
2022/07/11 10:28:58;;;;;;;1.70;1.10;;;;;;;27.51;36.31;97053.78;5043072;28;20196;-55
2022/07/11 10:31:27;;;;;;;2.10;1.10;;;;;;;27.43;36.39;97050.56;5043071;28;21445;-54
2022/07/11 10:34:05;;;;;;;2.83;1.33;;;;;;;27.78;35.56;97053.22;5043634;28;20535;-54
2022/07/11 10:36:33;;;;;;;3.28;1.10;;;;;;;27.65;35.42;97060.59;5043631;28;20203;-54
2022/07/11 10:39:14;;;;;;;2.15;1.20;;;;;;;27.56;34.14;97056.56;5043373;28;20293;-54
2022/07/11 10:41:41;;;;;;;4.20;1.20;;;;;;;27.56;35.09;97059.28;5043797;28;20239;-53
2022/07/11 10:44:10;;;;;;;1.77;1.05;;;;;;;27.75;35.00;97059.97;5042286;28;20295;-54
2022/07/11 10:46:38;;;;;;;3.35;1.08;;;;;;;27.65;36.40;97048.88;5045469;28;20239;-55
2022/07/11 10:49:11;;;;;;;1.58;1.10;;;;;;;27.56;35.01;97045.72;5042471;28;20209;-54
2022/07/11 10:51:47;;;;;;;2.22;1.40;;;;;;;27.67;35.70;97046.75;5042998;28;20547;-52
2022/07/11 10:54:28;;;;;;;2.58;1.10;;;;;;;27.80;35.92;97059.25;5043125;28;20207;-54
2022/07/11 10:57:02;;;;;;;3.92;1.15;;;;;;;27.32;35.38;97054.13;5042688;28;20586;-54
2022/07/11 10:59:31;;;;;;;3.03;1.00;;;;;;;27.51;34.99;97053.78;5043145;28;20269;-54
2022/07/11 11:02:05;;;;;;;2.65;1.27;;;;;;;27.82;35.60;97065.25;5042438;28;20286;-53
2022/07/11 11:04:50;;;;;;;2.63;1.10;;;;;;;27.93;34.58;97057.06;5042407;28;20295;-54
2022/07/11 11:07:30;;;;;;;2.67;1.33;;;;;;;27.46;38.44;97056.38;5042392;28;20206;-53
2022/07/11 11:09:58;;;;;;;2.38;0.98;;;;;;;27.75;35.48;97042.81;5042612;28;20304;-55
2022/07/11 11:12:58;;;;;;;2.50;1.17;;;;;;;27.57;37.07;97041.94;5043462;28;20204;-53
2022/07/11 11:15:36;;;;;;;2.25;1.13;;;;;;;27.82;35.34;97048.94;5042031;28;20192;-55
2022/07/11 11:18:43;;;;;;;3.67;1.23;;;;;;;27.81;34.43;97044.59;5043075;28;20195;-52
2022/07/11 11:21:19;;;;;;;2.47;1.30;;;;;;;28.05;34.86;97041.53;5040184;28;20199;-54
2022/07/11 11:23:47;;;;;;;4.55;1.55;;;;;;;28.22;37.17;97033.44;5042668;28;20340;-53
2022/07/11 11:26:15;;;;;;;1.60;1.42;;;;;;;28.20;34.23;97030.13;5041959;28;20206;-54
2022/07/11 11:28:56;;;;;;;5.20;1.42;;;;;;;28.46;35.83;97031.41;5043401;28;20293;-55
2022/07/11 11:31:24;;;;;;;0.95;0.73;;;;;;;28.33;35.90;97027.09;5041973;28;20324;-54
2022/07/11 11:33:51;;;;;;;14.52;2.90;;;;;;;28.44;35.05;97036.25;5042122;28;20210;-53
2022/07/11 11:36:19;;;;;;;14.63;3.22;;;;;;;28.58;34.95;97035.69;5042519;28;20282;-54
2022/07/11 11:38:46;;;;;;;8.35;2.22;;;;;;;28.39;34.21;97039.72;5041983;28;20663;-54
2022/07/11 11:41:15;;;;;;;37.90;6.00;;;;;;;28.38;33.48;97032.63;5042875;28;20290;-55
2022/07/11 11:43:45;;;;;;;3.20;1.30;;;;;;;28.27;34.70;97030.78;5042296;28;20234;-54
2022/07/11 11:46:13;;;;;;;3.90;1.10;;;;;;;28.39;35.26;97028.84;5040987;28;20541;-54
2022/07/11 11:48:45;;;;;;;2.80;1.10;;;;;;;27.89;33.03;97041.47;5042128;28;20648;-54